Friday, October 19, 2018, 3:30 PM GMT
Back to Local

CWVU, Brier Island, N. S.

Location: , , Canada Lat: 44.286
Local Time: 3:30 PM GMT (15:30 GMT) Lon: -66.347
Time Zone: GMT Elev: 52 ft

Show me the last for .
Show Coded

Time T Td Feel RH Dir Speed Gust Alt SLP Vis Weather Sky Remarks
2018-10-19 15:00 45 29 38 54 280° 15 - - 30.17 0 Peak wind: 23 mph (20 kts) from 280° at 35 min
2018-10-19 14:00 43 29 33 56 290° 17 24 - 30.17 0 Peak wind: 25 mph (22 kts) from 290° at 17 min
2018-10-19 13:00 41 27 31 57 280° 21 26 - 30.18 0 Peak wind: 27 mph (24 kts) from 290° at 19 min
2018-10-19 12:00 40 27 29 58 290° 21 26 - 30.18 0 Peak wind: 27 mph (24 kts) from 270° at 37 min
2018-10-19 11:00 39 25 29 56 280° 21 - - 30.16 0 Peak wind: 33 mph (29 kts) from 290° at 18 min
2018-10-19 10:00 39 27 28 60 290° 24 - - 30.16 0 Peak wind: 33 mph (29 kts) from 280° at 20 min
2018-10-19 09:00 38 25 26 57 290° 28 33 - 30.17 0 Peak wind: 40 mph (35 kts) from 290° at 04 min
2018-10-19 08:00 39 25 26 57 290° 29 37 - 30.16 0 Peak wind: 42 mph (37 kts) from 290° at 11 min
2018-10-19 07:00 39 24 25 54 290° 33 43 - 30.15 0 Peak wind: 42 mph (37 kts) from 280° at 58 min
2018-10-19 06:00 38 24 25 56 300° 30 39 - 30.15 0 Peak wind: 39 mph (34 kts) from 300° at 07 min
2018-10-19 05:00 38 22 25 51 300° 33 39 - 30.15 0 Peak wind: 42 mph (37 kts) from 290° at 25 min
2018-10-19 04:00 39 23 25 52 300° 33 43 - 30.14 0 Peak wind: 44 mph (39 kts) from 290° at 22 min
2018-10-19 03:00 39 23 25 53 300° 37 45 - 30.13 0 Peak wind: 50 mph (44 kts) from 290° at 00 min
2018-10-19 02:00 40 27 26 59 300° 39 48 - 30.13 0 Peak wind: 51 mph (45 kts) from 300° at 37 min
2018-10-19 01:00 38 25 24 59 290° 41 48 - 30.10 0 Peak wind: 49 mph (43 kts) from 290° at 06 min
2018-10-19 00:00 41 26 26 54 290° 43 52 - 30.08 0 Peak wind: 51 mph (45 kts) from 280° at 51 min
2018-10-18 23:00 42 27 29 55 300° 39 47 - 30.05 0 Peak wind: 50 mph (44 kts) from 290° at 23 min
2018-10-18 22:00 42 26 29 51 290° 40 48 - 30.01 0 Peak wind: 52 mph (46 kts) from 280° at 11 min
2018-10-18 21:00 42 25 30 49 290° 37 45 - 29.97 0 Peak wind: 50 mph (44 kts) from 300° at 10 min
2018-10-18 20:00 42 25 29 49 300° 44 51 - 29.93 0 Peak wind: 50 mph (44 kts) from 290° at 53 min
2018-10-18 19:00 41 27 27 58 290° 37 46 - 29.92 0 Peak wind: 48 mph (42 kts) from 290° at 10 min
2018-10-18 18:00 42 26 28 52 290° 39 46 - 29.90 0 Peak wind: 49 mph (43 kts) from 300° at 42 min
2018-10-18 17:00 42 26 29 51 290° 41 52 - 29.88 0 Peak wind: 51 mph (45 kts) from 290° at 56 min
2018-10-18 16:00 41 27 28 56 290° 39 47 - 29.89 0 Peak wind: 48 mph (42 kts) from 300° at 07 min

Support USWX by starting your Amazon purchase here.